Latest Weather Observations for Norah Head

IDN60801

Issued at 7:03 am EDT Monday 18 November 2019 (issued every 10 minutes, with the page automatically refreshed every 10 minutes)

About weather observations | Map of weather stations | Latest weather observations for NSW | Other Formats
Station Details ID: 061366 Name: NORAH HEAD AWS Lat: -33.28 Lon: 151.58 Height: 18.8 m
Data from the previous 72 hours. | See also: Recent months at Norah Head
Date/Time
EDT
Temp
°C
App
Temp
°C
Dew
Point
°C
Rel
Hum
%
Delta-T
°C
Wind Press
QNH
hPa
Press
MSL
hPa
Rain since
9am
mm
Dir  Spd
km/h
Gust
km/h
Spd
kts
Gust
kts
18/07:00am 17.4 17.8 13.7 79 2.1 WNW 4 6 2 3 1019.2 1019.1 0.0
18/06:30am 17.1 18.1 14.2 83 1.7 WNW 2 6 1 3 1018.9 1018.8 0.0
18/06:00am 17.1 17.2 13.8 81 1.9 WNW 6 9 3 5 1018.9 1018.8 0.0
18/05:30am 16.5 15.6 12.5 77 2.2 ENE 9 11 5 6 1018.6 1018.5 0.0
18/05:00am 17.4 17.1 12.7 74 2.6 E 6 7 3 4 1018.6 1018.5 0.0
18/04:30am 17.6 17.2 12.9 74 2.6 E 7 9 4 5 1018.4 1018.3 0.0
18/04:00am 17.3 16.8 12.8 75 2.5 E 7 9 4 5 1018.5 1018.4 0.0
18/03:30am 17.1 16.4 13.2 78 2.2 ESE 9 11 5 6 1018.5 1018.4 0.0
18/03:00am 17.1 15.9 12.8 76 2.4 ESE 11 13 6 7 1018.8 1018.7 0.0
18/02:30am 17.3 15.7 12.8 75 2.5 SE 13 15 7 8 1019.1 1019.0 0.0
18/02:00am 17.4 15.8 12.9 75 2.5 SE 13 17 7 9 1019.5 1019.4 0.0
18/01:30am 17.4 15.5 13.1 76 2.4 SE 15 19 8 10 1019.6 1019.5 0.0
18/01:00am 17.5 15.7 13.2 76 2.4 SE 15 19 8 10 1020.0 1019.9 0.0
18/12:30am 17.8 15.7 13.5 76 2.4 SE 17 22 9 12 1020.3 1020.2 0.0
18/12:00am 17.8 15.4 13.7 77 2.3 SE 19 22 10 12 1020.4 1020.3 0.0
 
Date/Time
EDT
Temp
°C
App
Temp
°C
Dew
Point
°C
Rel
Hum
%
Delta-T
°C
Wind Press
QNH
hPa
Press
MSL
hPa
Rain since
9am
mm
Dir  Spd
km/h
Gust
km/h
Spd
kts
Gust
kts
17/11:30pm 17.8 14.8 13.7 77 2.3 SSE 22 26 12 14 1020.6 1020.5 0.0
17/11:00pm 17.9 14.2 14.0 78 2.2 SSE 26 30 14 16 1020.6 1020.5 0.0
17/10:30pm 18.1 15.0 14.4 79 2.1 SSE 24 30 13 16 1020.5 1020.4 0.0
17/10:00pm 18.1 14.9 14.2 78 2.2 SE 24 28 13 15 1020.4 1020.3 0.0
17/09:30pm 18.1 14.4 14.0 77 2.3 SSE 26 30 14 16 1020.2 1020.1 0.0
17/09:00pm 18.1 14.8 14.0 77 2.3 SSE 24 30 13 16 1020.0 1019.9 0.0
17/08:30pm 18.2 14.3 14.5 79 2.1 SSE 28 33 15 18 1019.4 1019.3 0.0
17/08:00pm 18.0 14.4 14.3 79 2.1 SSE 26 30 14 16 1018.8 1018.7 0.0
17/07:30pm 18.0 13.6 14.1 78 2.2 SSE 30 35 16 19 1018.4 1018.3 0.0
17/07:00pm 18.4 13.3 14.7 79 2.1 SSE 35 43 19 23 1017.8 1017.7 0.0
17/06:30pm 18.4 12.7 14.3 77 2.4 SSE 37 43 20 23 1017.0 1016.9 0.0
17/06:00pm 18.9 13.3 15.4 80 2.1 SSE 39 44 21 24 1016.9 1016.8 0.0
17/05:30pm 18.8 13.0 14.9 78 2.3 SSE 39 44 21 24 1016.4 1016.3 0.0
17/05:00pm 19.1 14.3 15.6 80 2.1 SSE 35 41 19 22 1016.2 1016.1 0.0
17/04:30pm 19.4 13.5 15.7 79 2.2 SSE 41 48 22 26 1015.7 1015.6 0.0
17/04:00pm 19.6 14.0 15.5 77 2.4 SSE 39 44 21 24 1015.4 1015.3 0.0
17/03:30pm 20.1 13.8 15.7 76 2.6 SSE 43 48 23 26 1015.1 1015.0 0.0
17/03:00pm 20.2 14.0 16.0 77 2.5 SSE 43 48 23 26 1015.0 1014.9 0.0
17/02:30pm 21.1 16.7 16.7 76 2.7 S 35 43 19 23 1014.8 1014.7 0.0
17/02:00pm 21.2 16.5 16.8 76 2.7 S 37 43 20 23 1014.6 1014.5 0.0
17/01:30pm 21.1 18.1 15.9 72 3.1 S 26 32 14 17 1014.9 1014.8 0.0
17/01:00pm 22.3 19.0 16.1 68 3.7 SSE 28 32 15 17 1014.9 1014.8 0.0
17/12:30pm 21.9 18.8 16.6 72 3.2 SSE 28 33 15 18 1014.7 1014.6 0.0
17/12:00pm 21.1 17.8 16.1 73 3.0 S 28 35 15 19 1014.7 1014.6 0.0
17/11:30am 21.7 20.7 16.6 73 3.1 S 17 24 9 13 1014.6 1014.5 0.0
17/11:00am 22.0 22.4 17.2 74 2.9 SSW 11 17 6 9 1014.6 1014.5 0.0
17/10:30am 20.8 20.3 17.0 79 2.3 S 15 22 8 12 1014.5 1014.4 0.0
17/10:00am 20.5 19.4 17.7 84 1.7 SSW 20 26 11 14 1014.4 1014.3 0.0
17/09:30am 19.8 18.6 17.6 87 1.3 S 20 30 11 16 1014.3 1014.2 0.0
17/09:00am 19.6 18.0 17.4 87 1.3 SSW 22 32 12 17 1014.2 1014.1 0.0
17/08:30am 19.4 17.0 17.4 88 1.2 SSW 26 35 14 19 1014.0 1013.9 0.0
17/08:00am 19.3 18.7 16.7 85 1.6 SW 15 26 8 14 1013.9 1013.8 0.0
17/07:30am 19.2 20.5 17.2 88 1.2 SW 6 11 3 6 1013.7 1013.6 0.0
17/07:00am 19.0 21.1 17.1 89 1.2 WNW 2 6 1 3 1013.8 1013.7 0.0
17/06:30am 18.8 20.1 17.1 90 1.0 NNW 6 7 3 4 1013.7 1013.6 0.0
17/06:00am 19.1 19.0 17.8 92 0.8 N 15 17 8 9 1013.3 1013.2 0.0
17/05:30am 19.2 17.7 17.7 91 0.9 NNE 22 26 12 14 1013.1 1013.0 0.0
17/05:00am 19.0 18.7 17.3 90 1.0 ENE 15 19 8 10 1013.4 1013.3 0.0
17/04:30am 19.2 17.5 17.3 89 1.2 NE 22 28 12 15 1013.4 1013.3 0.0
17/04:00am 19.6 18.8 17.2 86 1.5 ENE 17 20 9 11 1013.8 1013.7 0.0
17/03:30am 19.4 19.7 17.0 86 1.5 NE 11 13 6 7 1013.9 1013.8 0.0
17/03:00am 19.2 18.7 17.0 87 1.3 NE 15 17 8 9 1013.9 1013.8 0.0
17/02:30am 19.1 18.2 16.9 87 1.3 NE 17 20 9 11 1014.0 1013.9 0.0
17/02:00am 19.0 17.5 16.4 85 1.6 ENE 19 22 10 12 1014.4 1014.3 0.0
17/01:30am 19.3 18.3 16.5 84 1.7 ENE 17 19 9 10 1015.1 1015.0 0.0
17/01:00am 19.3 19.0 16.5 84 1.7 ENE 13 17 7 9 1015.8 1015.7 0.0
17/12:30am 19.2 18.4 16.2 83 1.8 NE 15 19 8 10 1016.2 1016.1 0.0
17/12:00am 19.1 18.3 16.0 82 1.8 NE 15 19 8 10 1016.5 1016.4 0.0
 
Date/Time
EDT
Temp
°C
App
Temp
°C
Dew
Point
°C
Rel
Hum
%
Delta-T
°C
Wind Press
QNH
hPa
Press
MSL
hPa
Rain since
9am
mm
Dir  Spd
km/h
Gust
km/h
Spd
kts
Gust
kts
16/11:30pm 19.1 18.0 16.3 84 1.7 NE 17 20 9 11 1016.4 1016.3 0.0
16/11:00pm 19.0 17.5 16.2 84 1.7 NE 19 22 10 12 1016.3 1016.2 0.0
16/10:30pm 18.7 17.1 15.9 84 1.7 NE 19 20 10 11 1016.5 1016.4 0.0
16/10:00pm 18.8 17.1 15.7 82 1.8 NNE 19 22 10 12 1016.3 1016.2 0.0
16/09:30pm 19.2 17.5 15.7 80 2.1 NE 19 20 10 11 1016.1 1016.0 0.0
16/09:00pm 19.3 17.3 15.6 79 2.2 NNE 20 24 11 13 1015.9 1015.8 0.0
16/08:30pm 19.3 17.0 15.6 79 2.2 NNE 22 26 12 14 1015.5 1015.4 0.0
16/08:00pm 19.2 17.4 15.5 79 2.2 NE 19 24 10 13 1015.4 1015.3 0.0
16/07:30pm 19.4 17.8 15.1 76 2.5 ENE 17 20 9 11 1015.0 1014.9 0.0
16/07:00pm 19.4 17.7 14.6 74 2.8 ENE 17 20 9 11 1014.4 1014.3 0.0
16/06:30pm 19.6 17.8 14.4 72 3.0 E 17 20 9 11 1013.9 1013.8 0.0
16/06:00pm 19.9 17.7 14.3 70 3.2 E 19 20 10 11 1013.8 1013.7 0.0
16/05:30pm 20.2 18.1 14.8 71 3.2 SE 19 22 10 12 1013.7 1013.6 0.0
16/05:00pm 20.5 18.2 14.6 69 3.4 SE 20 22 11 12 1014.0 1013.9 0.0
16/04:30pm 21.0 18.8 14.4 66 3.9 SE 19 20 10 11 1014.2 1014.1 0.0
16/04:00pm 21.6 20.0 15.0 66 3.9 ESE 17 20 9 11 1014.2 1014.1 0.0
16/03:30pm 21.9 20.3 15.0 65 4.1 ESE 17 20 9 11 1014.2 1014.1 0.0
16/03:00pm 22.3 20.4 15.2 64 4.2 SE 19 20 10 11 1014.6 1014.5 0.0
16/02:30pm 22.1 20.0 15.2 65 4.1 SE 20 24 11 13 1014.8 1014.7 0.0
16/02:00pm 22.1 20.1 15.5 66 3.9 SE 20 24 11 13 1015.2 1015.1 0.0
16/01:30pm 22.4 20.5 15.7 66 4.0 SE 20 24 11 13 1015.5 1015.4 0.0
16/01:00pm 23.1 21.2 15.7 63 4.5 SE 20 24 11 13 1015.8 1015.7 0.0
16/12:30pm 22.5 20.7 15.6 65 4.1 SE 19 22 10 12 1016.0 1015.9 0.0
16/12:00pm 22.9 20.9 15.0 61 4.7 SE 19 20 10 11 1016.2 1016.1 0.0
16/11:30am 23.9 24.2 14.9 57 5.4 SE 7 9 4 5 1016.4 1016.3 0.0
16/11:00am 22.9 22.7 14.7 60 4.8 ESE 9 9 5 5 1016.5 1016.4 0.0
16/10:30am 22.8 22.8 14.1 58 5.1 SE 7 9 4 5 1016.4 1016.3 0.0
16/10:00am 24.1 24.6 15.6 59 5.1 SE 7 11 4 6 1016.4 1016.3 0.0
16/09:30am 23.4 23.0 15.2 60 4.9 SE 11 13 6 7 1016.1 1016.0 0.0
16/09:00am 22.0 20.5 15.4 66 3.9 SSE 17 19 9 10 1016.1 1016.0 0.0
16/08:30am 21.9 20.5 15.5 67 3.8 SSE 17 20 9 11 1015.8 1015.7 0.0
16/08:00am 20.6 17.6 14.7 69 3.5 SSE 24 28 13 15 1015.6 1015.5 0.0
16/07:30am 19.2 16.7 15.1 77 2.4 S 22 28 12 15 1015.1 1015.0 0.0
16/07:00am 18.7 15.1 15.2 80 2.1 S 28 33 15 18 1014.7 1014.6 0.0
16/06:30am 18.7 16.6 15.2 80 2.1 S 20 28 11 15 1014.2 1014.1 0.0
16/06:00am 18.2 15.4 15.3 83 1.7 S 24 28 13 15 1013.7 1013.6 0.0
16/05:30am 18.2 13.9 15.3 83 1.7 S 32 39 17 21 1013.0 1012.9 0.0
16/05:00am 18.2 13.9 15.5 84 1.6 S 32 39 17 21 1012.5 1012.4 0.0
16/04:30am 18.3 14.9 15.9 86 1.4 S 28 37 15 20 1012.4 1012.3 0.0
16/04:00am 18.1 13.8 15.4 84 1.6 S 32 43 17 23 1012.1 1012.0 0.0
16/03:30am 18.2 13.9 15.8 86 1.4 SSW 33 46 18 25 1011.9 1011.8 0.0
16/03:00am 18.2 13.1 15.8 86 1.4 SSW 37 50 20 27 1011.6 1011.5 0.0
16/02:30am 18.3 12.5 16.1 87 1.3 SSW 41 54 22 29 1011.3 1011.2 0.0
16/02:06am 18.3 14.2 16.5 89 1.1 SSW 33 52 18 28 1011.4 1011.3 0.0
16/02:00am 18.6 14.7 16.9 90 1.0 SSW 33 48 18 26 1011.5 1011.4 0.0
16/01:30am 18.5 13.7 16.7 89 1.1 SSW 37 52 20 28 1011.3 1011.2 0.0
16/01:00am 18.6 14.0 17.1 91 0.9 SSW 37 52 20 28 1010.9 1010.8 0.0
16/12:30am 18.7 14.3 16.7 88 1.2 S 35 48 19 26 1011.0 1010.9 0.0
16/12:00am 19.4 15.6 16.6 84 1.7 S 32 44 17 24 1010.8 1010.7 0.0
 
Date/Time
EDT
Temp
°C
App
Temp
°C
Dew
Point
°C
Rel
Hum
%
Delta-T
°C
Wind Press
QNH
hPa
Press
MSL
hPa
Rain since
9am
mm
Dir  Spd
km/h
Gust
km/h
Spd
kts
Gust
kts
15/11:40pm 22.3 19.3 12.0 52 5.8 SW 19 43 10 23 1010.5 1010.4 0.0
15/11:30pm 23.4 19.7 4.4 29 9.4 WSW 13 19 7 10 1009.9 1009.8 0.0
15/11:00pm 24.4 21.0 5.7 30 9.5 W 13 19 7 10 1009.6 1009.5 0.0
15/10:30pm 25.4 21.8 5.1 27 10.3 W 13 19 7 10 1009.4 1009.3 0.0
15/10:00pm 24.0 21.4 9.2 39 8.0 W 13 15 7 8 1009.1 1009.1 0.0
15/09:30pm 20.9 21.3 13.8 64 4.1 W 4 9 2 5 1008.7 1008.7 0.0
15/09:00pm 20.6 21.5 16.0 75 2.8 WNW 6 9 3 5 1008.3 1008.3 0.0
15/08:30pm 20.3 21.3 16.3 78 2.4 NW 6 9 3 5 1008.0 1008.0 0.0
15/08:00pm 20.1 20.6 16.5 80 2.2 N 9 11 5 6 1007.6 1007.6 0.0
15/07:30pm 20.6 21.5 16.6 78 2.4 N 7 9 4 5 1007.1 1007.1 0.0
15/07:00pm 20.8 21.3 16.6 77 2.5 N 9 13 5 7 1006.7 1006.7 0.0
15/06:30pm 21.0 21.7 17.0 78 2.4 NNE 9 13 5 7 1006.3 1006.3 0.0
15/06:00pm 21.3 22.1 17.3 78 2.5 NW 9 19 5 10 1006.0 1006.0 0.0
15/05:30pm 21.2 18.4 16.4 74 2.9 NE 26 30 14 16 1005.4 1005.4 0.0
15/05:00pm 21.6 19.5 16.3 72 3.2 NE 22 26 12 14 1005.3 1005.3 0.0
15/04:30pm 21.6 20.2 14.5 64 4.2 NE 15 24 8 13 1005.4 1005.4 0.0
15/04:00pm 21.5 22.0 14.9 66 3.9 N 6 9 3 5 1005.6 1005.6 0.0
15/03:30pm 22.3 20.8 15.4 65 4.1 E 17 19 9 10 1005.8 1005.8 0.0
15/03:00pm 22.6 21.6 14.7 61 4.7 ESE 13 17 7 9 1006.2 1006.2 0.0
15/02:30pm 23.9 22.1 13.2 51 6.2 ESE 15 19 8 10 1006.5 1006.5 0.0
15/02:00pm 24.4 22.1 13.0 49 6.6 E 17 19 9 10 1006.9 1006.9 0.0
15/01:30pm 24.7 21.8 12.3 46 7.1 E 19 20 10 11 1007.5 1007.5 0.0
15/01:00pm 25.2 22.2 12.1 44 7.5 ENE 19 20 10 11 1008.0 1008.0 0.0
15/12:30pm 25.4 23.3 12.3 44 7.5 E 15 20 8 11 1008.6 1008.6 0.0
15/12:00pm 28.9 28.4 13.9 39 9.0 SE 9 15 5 8 1009.2 1009.2 0.0
15/11:30am 29.2 28.9 13.4 38 9.4 NE 7 9 4 5 1009.8 1009.7 0.0
15/11:00am 26.9 25.0 7.4 29 10.4 NW 7 19 4 10 1010.3 1010.2 0.0
15/10:30am 26.9 25.5 8.8 32 9.9 WNW 6 15 3 8 1010.7 1010.6 0.0
15/10:00am 25.8 23.2 7.9 32 9.6 NW 11 24 6 13 1010.8 1010.7 0.0
15/09:30am 25.1 23.1 7.3 32 9.4 WNW 7 17 4 9 1010.8 1010.7 0.0
15/09:00am 24.7 22.5 7.8 34 9.0 WNW 9 19 5 10 1011.0 1010.9 0.0
15/08:30am 23.5 22.3 9.5 41 7.6 WNW 6 15 3 8 1011.1 1011.0 0.0
15/08:00am 21.4 20.7 9.9 48 6.2 NW 4 9 2 5 1011.2 1011.1 0.0
15/07:30am 19.8 18.2 8.8 49 5.8 WNW 7 17 4 9 1011.0 1010.9 0.0

Other formats

Comma delimited format used in spreadsheet applications
http://www.bom.gov.au/fwo/IDN60801/IDN60801.95770.axf

JavaScript Object Notation format (JSON) in row-major order
http://www.bom.gov.au/fwo/IDN60801/IDN60801.95770.json

Data quality

Most of these data are generated automatically and are frequently updated. Quality checks on data are not normally performed. It is possible for incorrect values to appear. Refer to information at About Latest Weather Observations and please check the disclaimer before using these data.